Hugo Cubas

Chefscout - River Plate
9 Sep 2027
Donnerstag
Verarbeitung

Persönlichkeit

Anpassungsfähigkeit (7) Ehrgeiz (7) Kontroverse (20) Loyalität (14) Druck (7) Professionalität (1) Fairness (7) Temperament (5)

Profil

Trainerstil Demokratisch
Lizenz Nationale B
Entschlossenheit 8
Menschenführung 4
Motivation 5
Disziplin 7
Arbeitszufriedenheit
100%
Ermüdung
0%
Rolle Chefscout
Gehalt 67.4K p/W
Vertrag 14.03.2029

Leistung

Verhalten Gut
Trainingseffektivität
33%
Spielerentwicklung
25%
Verletzungsprävention
35%
Taktische Umsetzung
45%

Letzte Ereignisse

Nahm an einer Scouting-Besprechung teil jetzt
Nahm an einer Scouting-Besprechung teil jetzt
Nahm an einer Scouting-Besprechung teil 7T her
Nahm an einer Scouting-Besprechung teil 7T her
Nahm an einer Scouting-Besprechung teil 7T her
Nahm an einer Scouting-Besprechung teil 7T her
Nahm an einer Scouting-Besprechung teil 14T her
Nahm an einer Scouting-Besprechung teil 14T her

Aktuell beobachtet

302
Spieler Verein Status Fähigkeit Vertrauen Beobachtet Zuletzt beobachtet Letzte Stimme
Finley McAllister Grimsby Town Verhandlung 86 / 94 40% 4 02.06.2027 -
Nicolás Mana Sportivo Trinidense Aktiv 114 / 114 52% 1 / 1m 02.06.2027 -
Gonçalo Oliveira Benfica Aktiv 111 / 126 40% 1 02.06.2027 -
Fuzy Taylor Medeama Aktiv 76 / 85 40% 1 02.06.2027 -
Tommaso Orsini Sambenedettese Aktiv 92 / 97 40% 3 01.06.2027 -
Oleksandr Saputin Poltava Aktiv 107 / 119 40% 1 01.06.2027 -
Iwan Morgan Grimsby Town Aktiv 124 / 117 40% 10 31.05.2027 -
Jayden Wareham Barnet Aktiv 92 / 85 40% 3 31.05.2027 -
Mees Rijks Bristol Rovers Aktiv 121 / 119 40% 5 31.05.2027 -
Luca Martelli Forli Aktiv 97 / 95 40% 2 31.05.2027 -
Valerio Boffelli Cavese Aktiv 104 / 117 40% 2 31.05.2027 -
Manuel Rios La Equidad Aktiv 115 / 107 40% 1 31.05.2027 Mehr Infos nötig
Adam Idah Swansea City Aktiv 130 / 134 40% 9 30.05.2027 -
Richard Koné Queens Park Rangers Aktiv 134 / 126 40% 6 30.05.2027 -
Cristian Shpendi Cesena Aktiv 134 / 137 40% 1 30.05.2027 -
Robert Mizo Ashanti Gold Aktiv 97 / 114 40% 13 29.05.2027 -
Rhian Brewster Oxford United Aktiv 121 / 106 40% 8 29.05.2027 -
Bernat Guiu Virtus Entella Aktiv 123 / 103 40% 2 29.05.2027 -
Darryl Bakola Padova Aktiv 113 / 113 40% 3 29.05.2027 -
Abu Kamara Portsmouth Aktiv 116 / 117 40% 8 28.05.2027 -
Yussif Saidu Zaragoza Aktiv 120 / 124 40% 2 28.05.2027 -
Manuel Ospina Cortulua Aktiv 132 / 117 40% 2 28.05.2027 -
Ricky Atletico Venezuela Aktiv 97 / 96 40% 1 28.05.2027 -
Agustín Medina Valencia Aktiv 129 / 136 40% 1 28.05.2027 -
Tyreece Campbell Charlton Athletic Aktiv 106 / 111 40% 8 27.05.2027 -
Lewis McCann Fleetwood Town Aktiv 104 / 100 40% 2 27.05.2027 -
Andri Guðjohnsen Blackburn Rovers Aktiv 111 / 136 40% 2 26.05.2027 -
Gregory Sekyere Aduana Stars Aktiv 82 / 90 40% 3 26.05.2027 -
Cristian Lora Leones Aktiv 94 / 98 40% 1 26.05.2027 -
Santiago Pierotti Lecce Aktiv 118 / 139 40% 5 25.05.2027 -
Malik Mothersille Stockport County Aktiv 122 / 124 40% 6 25.05.2027 -
Zian Flemming Ipswich Town Aktiv 142 / 143 40% 1 25.05.2027 -
Jason Knight Bristol City Aktiv 139 / 127 40% 1 25.05.2027 -
Sergio Barlocco Trento Aktiv 114 / 116 40% 4 24.05.2027 -
Mikhail Gaidash Spartak Kostroma Aktiv 105 / 87 40% 1 24.05.2027 -
Yousef Salech Cardiff City Aktiv 138 / 117 40% 6 23.05.2027 -
Ali Ishaku Abia Warriors Aktiv 96 / 92 40% 1 23.05.2027 -
David Valencia Alianza Petrolera Aktiv 121 / 122 40% 1 23.05.2027 -
Samuel Posada Leones Aktiv 92 / 82 40% 1 23.05.2027 -
Kelly Saravanan Salford City Aktiv 107 / 114 40% 5 22.05.2027 -
Jan Bürger Gillingham Aktiv 103 / 103 40% 2 22.05.2027 -
Mathias Jørgensen Blackburn Rovers Aktiv 119 / 101 40% 2 22.05.2027 -
Luca Martínez Dupuy Godoy Cruz Aktiv 130 / 131 40% 1 22.05.2027 -
Daniel Costa Sporting CP Aktiv 94 / 116 40% 1 22.05.2027 -
Lorent Tolaj Plymouth Argyle Aktiv 131 / 104 40% 8 21.05.2027 -
Florentino Luís Ipswich Town Aktiv 154 / 124 40% 2 21.05.2027 Mehr Infos nötig
Bradley Fink Wycombe Wanderers Aktiv 109 / 122 40% 8 21.05.2027 -
Jack McGlynn Stoke City Aktiv 121 / 141 40% 1 21.05.2027 -
Giorgi Chakvetadze Watford Aktiv 130 / 112 40% 2 20.05.2027 -
Jack Currie Oxford United Aktiv 110 / 136 40% 3 20.05.2027 -
Tiago Freitas Benfica Aktiv 99 / 106 40% 1 20.05.2027 -
Dom Ballard Leyton Orient Aktiv 129 / 127 40% 8 17.05.2027 -
Tomáš Frühwald Bohemians 1905 Aktiv 102 / 102 40% 3 17.05.2027 -
Facundo Vila Estudiantes Aktiv 102 / 93 40% 3 17.05.2027 -
Lorenzo Palmisani Frosinone Aktiv 123 / 147 40% 1 16.05.2027 -
Pedro Mendes Modena Aktiv 117 / 132 40% 1 15.05.2027 -
Harry Leonard Peterborough United Aktiv 112 / 127 40% 2 14.05.2027 -
Davide Mastrantonio Latina Aktiv 97 / 105 40% 2 14.05.2027 -
Lorenzo Cordaro Pergolettese Aktiv 94 / 101 40% 1 14.05.2027 -
Bojan Radulović Huddersfield Town Aktiv 122 / 109 40% 6 13.05.2027 -
Camillo Tavernelli Arezzo Aktiv 113 / 128 40% 4 13.05.2027 -
Marezi Portsmouth Aktiv 108 / 114 40% 2 13.05.2027 -
Emanuele Schimmenti Potenza Aktiv 119 / 116 40% 1 12.05.2027 -
Christ Inao Oulaï Fiorentina Aktiv 139 / 147 40% 1 12.05.2027 -
Agustín Mieres Atlanta Aktiv 83 / 98 40% 1 11.05.2027 -
Konan N'Dri Lecce Aktiv 125 / 120 40% 2 09.05.2027 -
Davide Bartesaghi AC Milan Aktiv 129 / 141 40% 2 09.05.2027 -
Bernardo Lima Porto Aktiv 88 / 122 40% 1 09.05.2027 -
Hazeem Bakre Crawley Town Aktiv 79 / 90 40% 1 08.05.2027 -
Nazareno Kihm Ferro Carril Oeste Aktiv 110 / 128 40% 1 08.05.2027 -
Stiven Shpendi Empoli Aktiv 114 / 139 40% 4 07.05.2027 -
David Atiemo Liberty Professionals Aktiv 71 / 82 40% 1 07.05.2027 -
Dylan Lawlor Cardiff City Aktiv 118 / 136 40% 1 06.05.2027 -
Jofre Torrents Ajax Aktiv 129 / 135 40% 1 06.05.2027 -
Riley Owen Trento Aktiv 108 / 93 40% 1 06.05.2027 -
Alex Lowry Wycombe Wanderers Aktiv 105 / 120 40% 2 05.05.2027 -
Ollie Tanner Cardiff City Aktiv 112 / 124 40% 2 05.05.2027 -
Guilherme Pires Sporting CP Aktiv 91 / 91 40% 1 05.05.2027 -
Filip Marschall Stevenage Aktiv 120 / 103 40% 2 04.05.2027 -
Fedor Lapoukhov CSKA Sofia Aktiv 129 / 119 40% 1 04.05.2027 -
Christian Saydee Wigan Athletic Aktiv 109 / 104 40% 4 03.05.2027 -
Matteo Rizzo Cosenza Aktiv 119 / 125 40% 1 03.05.2027 -
Job Ochieng Real Sociedad Aktiv 105 / 114 40% 8 02.05.2027 -
Bruno Antúnez Boston River Aktiv 118 / 103 40% 2 02.05.2027 -
David Cordova Atletico Venezuela Aktiv 89 / 91 40% 1 02.05.2027 -
Luka Tasić Spartak Subotica Aktiv 111 / 100 40% 1 02.05.2027 -
Tomás González Piast Aktiv 102 / 134 40% 7 29.04.2027 -
Mostafa Marwan Masr El Makasa Aktiv 106 / 99 40% 1 28.04.2027 -
Pietro Reggiori Pro Patria Aktiv 97 / 84 40% 1 28.04.2027 -
Victor Torp Coventry City Aktiv 139 / 111 40% 1 26.04.2027 -
Alberto Zecchin Dolomiti Bellunesi Aktiv 90 / 78 40% 1 26.04.2027 -
Ilja Tuseev Chelyabinsk Aktiv 104 / 103 40% 1 26.04.2027 -
Lee Bonis Chesterfield Aktiv 110 / 96 40% 2 25.04.2027 -
Ángel Maciel Tacuarembo Aktiv 106 / 110 40% 1 25.04.2027 -
Cesare Galeotti Trapani Aktiv 109 / 109 40% 1 25.04.2027 -
Ekain Orobengoa Real Sociedad Aktiv 106 / 106 40% 4 24.04.2027 -
Andrii Bobynets Prykarpattia Aktiv 86 / 89 40% 1 24.04.2027 -
José Martínes CSKA 1948 Aktiv 120 / 113 40% 2 23.04.2027 -
Ethan Williams Peterborough United Aktiv 121 / 129 40% 1 22.04.2027 -
Niall Ennis Blackpool Aktiv 112 / 97 40% 3 21.04.2027 -
Milan van Ewijk Mansfield Town Aktiv 119 / 134 40% 2 20.04.2027 -
Sonny Carey Charlton Athletic Aktiv 122 / 110 40% 2 20.04.2027 -
Francesco D'Alterio Ternana Aktiv 103 / 126 40% 1 19.04.2027 -
Lorenzo Di Stefano Torres Aktiv 102 / 99 40% 3 18.04.2027 -
Aidomo Emakhu Oxford United Aktiv 108 / 106 40% 1 17.04.2027 -
Nikolay Bondarenko Irkutsk Aktiv 61 / 94 40% 2 16.04.2027 -
Ronan Hale Gillingham Aktiv 125 / 96 40% 1 16.04.2027 -
Juan Cruz Martins Jihlava Aktiv 89 / 117 40% 3 13.04.2027 -
Ebrima Singhateh Jablonec Aktiv 108 / 112 40% 2 13.04.2027 -
David Ozoh Derby County Aktiv 123 / 124 40% 1 12.04.2027 -
Samuel Lucero Defensa y Justicia Aktiv 120 / 110 40% 2 11.04.2027 -
Giuseppe Di Serio Spezia Aktiv 128 / 116 40% 1 11.04.2027 -
Christos Mouzakitis Hull City Aktiv 124 / 120 40% 1 11.04.2027 -
Tyler Goodrham Oxford United Aktiv 131 / 121 40% 3 10.04.2027 -
Dale Taylor Blackpool Aktiv 106 / 120 40% 1 10.04.2027 -
David Turnbull Cardiff City Aktiv 127 / 110 40% 1 10.04.2027 -
Zak Swanson Bradford City Aktiv 106 / 122 40% 2 09.04.2027 -
Bosun Lawal Stoke City Aktiv 129 / 146 40% 2 09.04.2027 -
Andy Rinomhota Reading Aktiv 113 / 102 40% 1 05.04.2027 -
Dylan Levitt Leyton Orient Aktiv 105 / 114 40% 2 04.04.2027 -
Marcus Browne AFC Wimbledon Aktiv 107 / 92 40% 1 04.04.2027 -
Nikita Iosifov Viktoria Plzen Aktiv 118 / 101 40% 1 04.04.2027 -
Stanley Mills Oxford United Aktiv 130 / 132 40% 3 01.04.2027 -
Joseph Hungbo Wigan Athletic Aktiv 115 / 107 40% 2 01.04.2027 -
John Yeboah Venezia Aktiv 117 / 113 40% 2 01.04.2027 -
Josh Tymon Swansea City Aktiv 136 / 140 40% 2 28.03.2027 -
Kwame Opoku Asante Kotoko Aktiv 104 / 110 40% 3 26.03.2027 -
Xavier Amaechi Plymouth Argyle Aktiv 116 / 124 40% 1 23.03.2027 -
Isaiah Jones Luton Town Aktiv 119 / 112 40% 2 21.03.2027 -
Fortune Bassey Djoliba Aktiv 100 / 87 40% 1 21.03.2027 -
Sayfallah Ltaief Cracovia Aktiv 121 / 121 40% 1 21.03.2027 -
Emanuele Pecorino Catanzaro Aktiv 113 / 114 40% 1 21.03.2027 -
Danyil Alefirenko Chornomorets Aktiv 107 / 110 40% 5 18.03.2027 -
Jack Diamond Stockport County Aktiv 117 / 120 40% 1 16.03.2027 -
Jacques Siwe Rubin Aktiv 126 / 131 40% 2 15.03.2027 -
Sheyi Ojo Bradford City Aktiv 121 / 102 40% 1 13.03.2027 -
Ihor Krasnopir Polissia Aktiv 118 / 123 40% 1 13.03.2027 -
Iuri Tabatadze Cádiz Aktiv 126 / 115 40% 1 10.03.2027 -
Alessio Zerbin Frosinone Aktiv 126 / 122 40% 1 07.03.2027 -
Chris Lokesa Waasland-Beveren Aktiv 122 / 134 40% 1 07.03.2027 -
Lincoln Spartak Subotica Aktiv 102 / 91 40% 1 06.03.2027 -
Papa Ndiaga Yade Oleksandriya Aktiv 100 / 116 40% 2 01.03.2027 -
Louis Appéré Cambridge United Aktiv 86 / 96 40% 2 01.03.2027 -
Nicolás Andereggen Ethnikos Achnas Aktiv 127 / 124 40% 1 28.02.2027 -
Joe Gelhardt Hull City Aktiv 127 / 145 40% 5 27.02.2027 -
Isa Sakamoto Westerlo Aktiv 125 / 115 40% 2 27.02.2027 -
Adnan Courtois KV Oostende Aktiv 129 / 149 40% 2 27.02.2027 -
Rajmund Molnár Pogon Aktiv 119 / 99 40% 1 26.02.2027 -
Myron van Brederode KV Mechelen Aktiv 125 / 128 40% 1 25.02.2027 -
Ethan Galbraith Swansea City Aktiv 140 / 114 40% 3 23.02.2027 -
Kwame Poku Queens Park Rangers Aktiv 113 / 111 40% 1 23.02.2027 -
Matyáš Kozák Teplice Aktiv 126 / 95 40% 2 20.02.2027 -
Ruslan Apekov Torpedo Moscow Aktiv 118 / 86 40% 1 19.02.2027 -
Jakob Napoleon Romsaas Charleroi Aktiv 124 / 126 40% 2 18.02.2027 -
Mihael Mlinarić Zaglebie Aktiv 122 / 110 40% 2 17.02.2027 -
Ahmed Kutucu Konyaspor Aktiv 116 / 112 40% 1 02.02.2027 -
Agustín Módica Gimnasia y Esgrima Aktiv 119 / 130 40% 5 29.01.2027 -
Luis Vázquez Birmingham Aktiv 122 / 136 40% 3 29.01.2027 -
Gilson Benchimol Akron Aktiv 100 / 104 40% 1 29.01.2027 -
Carlos Vicente Birmingham Aktiv 130 / 144 40% 1 29.01.2027 -
Mohamed-Ali Cho Hull City Aktiv 144 / 129 40% 2 28.01.2027 -
Kasey McAteer Ipswich Town Aktiv 123 / 123 40% 1 28.01.2027 -
Ilyas Ansah Hull City Aktiv 141 / 112 40% 1 27.01.2027 -
Sam Bell Bristol City Aktiv 124 / 117 40% 1 27.01.2027 -
Đorđe Jovanović Radnik Surdulica Aktiv 113 / 126 40% 1 21.01.2027 -
Juan Rocca Gimnasia y Tiro Aktiv 108 / 110 40% 1 13.01.2027 -
Leandro Godoy CSKA Sofia Aktiv 131 / 121 40% 2 11.01.2027 -
Slobodan Tedić Akron Aktiv 98 / 126 40% 1 11.01.2027 -
Derensili Sanches Fernandes Huddersfield Town Aktiv 133 / 114 40% 1 10.01.2027 -
Alexander Díaz Deportivo Riestra Aktiv 113 / 112 40% 3 08.01.2027 -
Santiago Sala Güemes Aktiv 105 / 113 40% 2 05.01.2027 -
Danylo Kravchuk LNZ Aktiv 102 / 119 40% 1 04.01.2027 -
Marc Bola Watford Aktiv 114 / 127 40% 1 21.12.2026 -
Phil Neumann Birmingham Aktiv 111 / 126 40% 1 14.12.2026 -
Hernán de la Fuente Instituto Aktiv 123 / 129 40% 1 14.12.2026 -
Fabricio Díaz San Lorenzo Aktiv 98 / 107 40% 1 01.12.2026 -
Ciro Thompson Newell's Old Boys Aktiv 93 / 91 40% 1 01.12.2026 -
Ammar Ramadan DAC Dunajska Streda Aktiv 124 / 131 40% 2 30.11.2026 -
Antony Alonso Deportivo Riestra Aktiv 126 / 121 40% 2 29.11.2026 Mehr Infos nötig
Lukáš Červ Viktoria Plzen Aktiv 142 / 126 40% 2 29.11.2026 -
Luca Franco Arsenal Aktiv 111 / 97 40% 2 29.11.2026 -
Rahim Ibrahim Slovan Bratislava Aktiv 137 / 119 40% 1 29.11.2026 -
Yhormar Hurtado SonderjyskE Aktiv 116 / 103 40% 1 28.11.2026 -
Will Fish Cardiff City Aktiv 117 / 116 40% 1 27.11.2026 -
Caolan Boyd-Munce Wycombe Wanderers Aktiv 125 / 125 40% 1 27.11.2026 -
Stephen Humphrys Bradford City Aktiv 101 / 96 40% 2 26.11.2026 -
Facundo Miño Deportivo Riestra Aktiv 128 / 120 40% 1 26.11.2026 -
Misael Sosa Godoy Cruz Aktiv 110 / 122 40% 2 25.11.2026 -
Tomás Silva Platense Aktiv 126 / 117 40% 3 25.11.2026 -
Ignacio Rodríguez Racing Club Aktiv 116 / 116 40% 1 25.11.2026 -
Juan Giménez Celta Aktiv 128 / 105 40% 1 24.11.2026 -
Lautaro Ríos Banfield Aktiv 120 / 118 40% 1 24.11.2026 -
Pedro Ramírez Deportivo Riestra Aktiv 121 / 111 40% 1 23.11.2026 -
Breel Embolo Atlanta United FC Aktiv 145 / 148 40% 4 22.11.2026 -
Cian Ashford Cardiff City Aktiv 118 / 108 40% 1 22.11.2026 -
Gabriel Jesus Barcelona Aktiv 157 / 168 40% 10 21.11.2026 -
Martín Garay Tigre Aktiv 118 / 110 40% 2 21.11.2026 -
Esteban da Silva Racing Aktiv 105 / 113 40% 1 21.11.2026 -
Kane Wilson Milton Keynes Dons Aktiv 124 / 125 40% 1 21.11.2026 -
Mateo Mendoza Godoy Cruz Aktiv 115 / 116 40% 1 21.11.2026 -
Fernando Martínez Central Córdoba SdE Aktiv 119 / 126 40% 2 20.11.2026 -
Reda Khadra Qarabag Aktiv 120 / 141 40% 1 20.11.2026 -
Daniel Kyerewaa Reading Aktiv 122 / 119 40% 1 20.11.2026 -
Gastón Benedetti Estudiantes Aktiv 120 / 136 40% 1 20.11.2026 -
Rico Lewis Manchester City Aktiv 142 / 146 40% 1 19.11.2026 -
Mathías de Ritis San Lorenzo Aktiv 112 / 123 40% 1 19.11.2026 -
Marcos Enrique Tristán Suárez Aktiv 115 / 112 40% 1 19.11.2026 -
Santiago Rodríguez Gimnasia y Esgrima Aktiv 123 / 127 40% 3 18.11.2026 -
Ruben van Bommel Ferencvaros Aktiv 147 / 123 40% 1 18.11.2026 Mehr Infos nötig
Agustín Paz Progreso Aktiv 121 / 114 40% 1 18.11.2026 -
Enzo Avaro Odd Aktiv 106 / 126 40% 6 16.11.2026 -
Ariel Schuartzman Torpedo Kutaisi Aktiv 117 / 89 40% 4 16.11.2026 -
Ramón González Almirante Brown Aktiv 104 / 110 40% 1 16.11.2026 -
Rodrigo Bogarín Barracas Central Aktiv 117 / 110 40% 4 15.11.2026 -
Alejo Cruz Juventud Aktiv 118 / 113 40% 1 15.11.2026 -
Merchas Doski Viktoria Plzen Aktiv 114 / 132 40% 1 15.11.2026 -
Gabriel Díaz Patronato Aktiv 110 / 129 40% 1 15.11.2026 -
Stefano Moreyra Independiente Rivadavia Aktiv 127 / 133 40% 1 14.11.2026 -
Maizon Rodríguez Unión de Santa Fe Aktiv 119 / 124 40% 1 14.11.2026 -
Mauro Valiente Estudiantes Aktiv 114 / 117 40% 3 13.11.2026 -
Nicolás Cordero Aldosivi Aktiv 120 / 112 40% 2 13.11.2026 -
Lucas Carrizo Plaza Colonia Aktiv 107 / 111 40% 1 13.11.2026 -
Matías Cóccaro Newell's Old Boys Aktiv 119 / 110 40% 1 11.11.2026 -
Marcelo Torres Gimnasia La Plata Aktiv 120 / 123 40% 3 10.11.2026 -
Lucas Varaldo Central Córdoba SdE Aktiv 118 / 114 40% 3 10.11.2026 -
Abel Bustos Racing Aktiv 112 / 108 40% 1 10.11.2026 -
Walter Juárez Güemes Aktiv 107 / 106 40% 1 10.11.2026 -
Leandro Lozano Boca Juniors Aktiv 124 / 134 40% 1 10.11.2026 -
Victor Adeboyejo Ismaily Aktiv 107 / 107 40% 1 09.11.2026 -
Assad Al Hamlawi Universitatea Craiova Aktiv 125 / 116 40% 1 09.11.2026 -
Santiago González Tigre Aktiv 124 / 129 40% 1 08.11.2026 -
Tomás Fernández Aldosivi Aktiv 115 / 119 40% 1 08.11.2026 -
Ramiro Hernandes Belgrano Aktiv 110 / 128 40% 1 08.11.2026 -
Ulises Sánchez Gimnasia y Esgrima Aktiv 119 / 122 40% 1 07.11.2026 -
Tomás Porra Barracas Central Aktiv 122 / 125 40% 1 07.11.2026 -
Jonás Luna Santa Clara Aktiv 112 / 131 40% 3 06.11.2026 -
Ola Brynhildsen Bodo/Glimt Aktiv 121 / 132 40% 4 05.11.2026 -
Sebastián Cocimano Nueva Chicago Aktiv 113 / 114 40% 1 04.11.2026 -
Lucas Arce CFR Cluj Aktiv 119 / 121 40% 1 04.11.2026 -
Mariano Bracamonte Deportivo Riestra Aktiv 127 / 113 40% 2 02.11.2026 Mehr Infos nötig
Gonzalo Ríos Independiente Rivadavia Aktiv 126 / 119 40% 1 02.11.2026 Mehr Infos nötig
Fabricio Rojas Gimnasia y Tiro Aktiv 118 / 121 40% 2 31.10.2026 -
Nicolás Heiz Maipú Aktiv 99 / 113 40% 1 31.10.2026 -
Augusto Berrondo Tristán Suárez Aktiv 109 / 97 40% 1 31.10.2026 -
Agustín Gallo Tristán Suárez Aktiv 110 / 113 40% 1 28.10.2026 -
Andreas Helmersen Bodo/Glimt Aktiv 129 / 136 40% 1 27.10.2026 -
Iñaki Larthirigoyen San Telmo Aktiv 124 / 132 40% 1 27.10.2026 -
Facundo Waller Huracán Aktiv 128 / 124 40% 1 27.10.2026 -
David Miculescu FCSB Aktiv 110 / 105 40% 1 23.10.2026 -
Suleiman Camara Slovan Bratislava Aktiv 127 / 110 40% 1 22.10.2026 -
Brais Méndez Columbus Crew Aktiv 140 / 160 40% 1 21.10.2026 -
Omar Faraj Halmstad Aktiv 120 / 113 40% 1 19.10.2026 -
Adilson Córdoba Aktiv 134 / 113 40% 2 18.10.2026 -
Erik Prekop Gornik Zabrze Aktiv 114 / 127 40% 1 17.10.2026 -
Ola Solbakken FC Nordsjaelland Aktiv 127 / 123 40% 1 17.10.2026 -
Juan Manuel Sanabria Real Salt Lake Aktiv 112 / 141 40% 1 16.10.2026 -
Ole-Didrik Blomberg Bodo/Glimt Aktiv 123 / 124 40% 1 16.10.2026 -
Josh Sargent Toronto FC Aktiv 135 / 129 40% 5 15.10.2026 -
Luis Palma Lech Aktiv 133 / 103 40% 1 15.10.2026 -
José Bernal MFK Michalovce Aktiv 98 / 117 40% 1 14.10.2026 -
Facundo Mura Inter Miami CF Aktiv 126 / 137 40% 1 13.10.2026 -
Kévin Denkey FC Cincinnati Aktiv 134 / 114 40% 3 09.10.2026 -
Federico Girotti Alianza Lima Aktiv 122 / 112 40% 1 09.10.2026 -
Adolfo Muñoz Ruch Aktiv 105 / 115 40% 1 08.10.2026 -
Axel Pérez NK Domzale Aktiv 102 / 100 40% 1 07.10.2026 -
Griffin Yow New England Revolution Aktiv 117 / 144 40% 1 06.10.2026 -
Wessam Abou Ali Columbus Crew Aktiv 133 / 115 40% 4 05.10.2026 -
Ibrahim Aliyu Houston Dynamo Aktiv 118 / 104 40% 1 03.10.2026 -
Theo Corbeanu Toronto FC Aktiv 125 / 132 40% 1 01.10.2026 -
Armindo Sieb Los Angeles Football Club Aktiv 129 / 137 40% 3 30.09.2026 -
Jeremy Ebobisse Los Angeles Football Club Aktiv 115 / 106 40% 4 28.09.2026 -
Jeong Sang-Bin St. Louis CITY SC Aktiv 125 / 102 40% 2 18.09.2026 -
Kevin Kelsy Portland Timbers Aktiv 111 / 122 40% 1 15.09.2026 -
Franco Déboli Wolfsberger AC Aktiv 97 / 111 40% 1 14.09.2026 -
Lucas Souto Defensa y Justicia Aktiv 117 / 135 40% 1 13.09.2026 -
Ayoub Jabbari FC Cincinnati Aktiv 125 / 107 40% 1 12.09.2026 -
Jesús Yendis Caracas Aktiv 99 / 109 40% 1 09.09.2026 -
Santiago Rodríguez Columbus Crew Aktiv 133 / 110 40% 1 09.09.2026 -
Martín Ojeda Orlando City Aktiv 140 / 127 40% 2 31.08.2026 -
Alexander Aravena Portland Timbers Aktiv 136 / 134 40% 1 30.08.2026 -
Alan Cantero Alianza Lima Aktiv 112 / 124 40% 1 28.08.2026 -
Cheikh Sabaly Vancouver Whitecaps Aktiv 135 / 135 40% 1 27.08.2026 -
Oleksii Hutsuliak Polissia Aktiv 111 / 142 40% 1 26.08.2026 -
Enzo Reynoso Defensa y Justicia Aktiv 95 / 97 40% 1 25.08.2026 -
Thiago Perugini San Lorenzo Aktiv 105 / 101 40% 1 25.08.2026 -
Marcos Camarda Santiago Wanderers Aktiv 106 / 108 40% 1 23.08.2026 -
Milan Iloski Philadelphia Union Aktiv 104 / 107 40% 1 21.08.2026 -
Rafael Navarro St. Louis CITY SC Aktiv 110 / 140 40% 1 21.08.2026 -
Felipe Vizeu Sporting Cristal Aktiv 125 / 124 40% 1 20.08.2026 -
Ronaldo Peña Deportivo Lara Aktiv 100 / 109 40% 1 18.08.2026 -
Nahuel Maldonado Huracán Aktiv 80 / 98 40% 1 18.08.2026 -
Ramiro Ruiz Rodríguez Atlético Tucumán Aktiv 127 / 115 40% 1 17.08.2026 -
Leonel Flores Boca Juniors Aktiv 94 / 106 40% 1 17.08.2026 -
Aliou Dieng Valencia Aktiv 124 / 128 40% 1 08.08.2026 -
Lucas Cornejo Estudiantes Aktiv 101 / 107 40% 1 08.08.2026 -
Dani Villahermosa Oviedo Aktiv 118 / 95 40% 1 06.08.2026 -
Santiago Luján Huracán Aktiv 115 / 103 40% 1 06.08.2026 -
Kevin González Trujillanos Aktiv 94 / 87 40% 1 05.08.2026 -
Sebas Moyano Zaragoza Aktiv 117 / 132 40% 1 02.08.2026 -
Johan Madrid Sporting Cristal Aktiv 105 / 119 40% 1 02.08.2026 -
Pablo Durán Celta Aktiv 121 / 142 40% 1 01.08.2026 -
Mateo Raschia Unión de Santa Fe Aktiv 99 / 104 40% 1 01.08.2026 -